sensor_id;sensor_type;location;lat;lon;timestamp;P1;durP1;ratioP1;P2;durP2;ratioP2
65769;SDS011;52512;47.650;8.578;2022-08-19T00:01:24;3.90;;;3.37;;
65769;SDS011;52512;47.650;8.578;2022-08-19T00:03:52;7.00;;;3.37;;
65769;SDS011;52512;47.650;8.578;2022-08-19T00:06:17;8.77;;;5.47;;
65769;SDS011;52512;47.650;8.578;2022-08-19T00:08:43;5.03;;;4.10;;
65769;SDS011;52512;47.650;8.578;2022-08-19T00:11:10;5.63;;;4.23;;
65769;SDS011;52512;47.650;8.578;2022-08-19T00:13:36;6.10;;;4.77;;
65769;SDS011;52512;47.650;8.578;2022-08-19T00:16:03;5.80;;;3.93;;
65769;SDS011;52512;47.650;8.578;2022-08-19T00:18:30;6.53;;;4.63;;
65769;SDS011;52512;47.650;8.578;2022-08-19T00:20:57;7.63;;;5.20;;
65769;SDS011;52512;47.650;8.578;2022-08-19T00:23:24;5.33;;;4.30;;
65769;SDS011;52512;47.650;8.578;2022-08-19T00:25:50;5.10;;;4.60;;
65769;SDS011;52512;47.650;8.578;2022-08-19T00:28:17;5.37;;;4.03;;
65769;SDS011;52512;47.650;8.578;2022-08-19T00:30:43;4.20;;;3.80;;
65769;SDS011;52512;47.650;8.578;2022-08-19T00:33:09;4.00;;;3.50;;
65769;SDS011;52512;47.650;8.578;2022-08-19T00:35:35;6.03;;;4.23;;
65769;SDS011;52512;47.650;8.578;2022-08-19T00:38:00;5.60;;;4.33;;
65769;SDS011;52512;47.650;8.578;2022-08-19T00:40:26;16.30;;;4.40;;
65769;SDS011;52512;47.650;8.578;2022-08-19T00:42:51;3.37;;;2.97;;
65769;SDS011;52512;47.650;8.578;2022-08-19T00:45:21;6.90;;;4.20;;
65769;SDS011;52512;47.650;8.578;2022-08-19T00:47:48;6.17;;;4.70;;
65769;SDS011;52512;47.650;8.578;2022-08-19T00:50:15;12.23;;;4.67;;
65769;SDS011;52512;47.650;8.578;2022-08-19T00:52:43;6.83;;;4.67;;
65769;SDS011;52512;47.650;8.578;2022-08-19T00:55:14;7.73;;;5.17;;
65769;SDS011;52512;47.650;8.578;2022-08-19T00:57:44;4.97;;;4.13;;
65769;SDS011;52512;47.650;8.578;2022-08-19T01:00:14;7.43;;;5.97;;
65769;SDS011;52512;47.650;8.578;2022-08-19T01:02:42;5.67;;;3.90;;
65769;SDS011;52512;47.650;8.578;2022-08-19T01:05:09;10.00;;;3.97;;
65769;SDS011;52512;47.650;8.578;2022-08-19T01:07:38;5.50;;;4.40;;
65769;SDS011;52512;47.650;8.578;2022-08-19T01:10:06;5.83;;;5.20;;
65769;SDS011;52512;47.650;8.578;2022-08-19T01:12:35;8.97;;;5.70;;
65769;SDS011;52512;47.650;8.578;2022-08-19T01:15:01;6.40;;;4.87;;
65769;SDS011;52512;47.650;8.578;2022-08-19T01:17:28;7.87;;;5.13;;
65769;SDS011;52512;47.650;8.578;2022-08-19T01:19:53;9.70;;;6.07;;
65769;SDS011;52512;47.650;8.578;2022-08-19T01:22:31;7.70;;;4.40;;
65769;SDS011;52512;47.650;8.578;2022-08-19T01:25:05;12.40;;;5.87;;
65769;SDS011;52512;47.650;8.578;2022-08-19T01:27:38;7.30;;;5.10;;
65769;SDS011;52512;47.650;8.578;2022-08-19T01:30:05;8.83;;;5.47;;
65769;SDS011;52512;47.650;8.578;2022-08-19T01:32:32;6.27;;;5.20;;
65769;SDS011;52512;47.650;8.578;2022-08-19T01:34:58;9.37;;;4.40;;
65769;SDS011;52512;47.650;8.578;2022-08-19T01:37:27;6.97;;;3.97;;
65769;SDS011;52512;47.650;8.578;2022-08-19T01:39:53;5.37;;;3.70;;
65769;SDS011;52512;47.650;8.578;2022-08-19T01:42:18;7.03;;;4.83;;
65769;SDS011;52512;47.650;8.578;2022-08-19T01:44:44;5.80;;;4.40;;
65769;SDS011;52512;47.650;8.578;2022-08-19T01:47:10;5.90;;;4.40;;
65769;SDS011;52512;47.650;8.578;2022-08-19T01:49:36;6.50;;;4.47;;
65769;SDS011;52512;47.650;8.578;2022-08-19T01:52:02;6.80;;;5.23;;
65769;SDS011;52512;47.650;8.578;2022-08-19T01:54:29;4.63;;;3.80;;
65769;SDS011;52512;47.650;8.578;2022-08-19T01:56:57;5.17;;;3.33;;
65769;SDS011;52512;47.650;8.578;2022-08-19T01:59:26;5.57;;;4.23;;
65769;SDS011;52512;47.650;8.578;2022-08-19T02:01:53;4.70;;;3.40;;
65769;SDS011;52512;47.650;8.578;2022-08-19T02:04:18;6.00;;;4.53;;
65769;SDS011;52512;47.650;8.578;2022-08-19T02:06:45;6.83;;;5.07;;
65769;SDS011;52512;47.650;8.578;2022-08-19T02:09:11;4.77;;;4.20;;
65769;SDS011;52512;47.650;8.578;2022-08-19T02:11:36;7.93;;;6.13;;
65769;SDS011;52512;47.650;8.578;2022-08-19T02:14:04;8.50;;;5.63;;
65769;SDS011;52512;47.650;8.578;2022-08-19T02:16:31;9.53;;;5.83;;
65769;SDS011;52512;47.650;8.578;2022-08-19T02:18:58;8.20;;;5.27;;
65769;SDS011;52512;47.650;8.578;2022-08-19T02:21:26;9.67;;;7.00;;
65769;SDS011;52512;47.650;8.578;2022-08-19T02:23:53;9.60;;;5.47;;
65769;SDS011;52512;47.650;8.578;2022-08-19T02:26:20;8.70;;;5.27;;
65769;SDS011;52512;47.650;8.578;2022-08-19T02:28:46;7.10;;;4.77;;
65769;SDS011;52512;47.650;8.578;2022-08-19T02:31:14;8.80;;;5.87;;
65769;SDS011;52512;47.650;8.578;2022-08-19T02:33:42;6.27;;;4.97;;
65769;SDS011;52512;47.650;8.578;2022-08-19T02:36:10;7.10;;;5.33;;
65769;SDS011;52512;47.650;8.578;2022-08-19T02:38:36;20.17;;;6.63;;
65769;SDS011;52512;47.650;8.578;2022-08-19T02:41:04;7.87;;;5.20;;
65769;SDS011;52512;47.650;8.578;2022-08-19T02:43:36;9.33;;;6.23;;
65769;SDS011;52512;47.650;8.578;2022-08-19T02:46:02;15.20;;;6.40;;
65769;SDS011;52512;47.650;8.578;2022-08-19T02:48:45;9.97;;;5.53;;
65769;SDS011;52512;47.650;8.578;2022-08-19T02:51:20;12.87;;;6.37;;
65769;SDS011;52512;47.650;8.578;2022-08-19T02:53:51;11.70;;;6.20;;
65769;SDS011;52512;47.650;8.578;2022-08-19T02:56:17;12.43;;;6.20;;
65769;SDS011;52512;47.650;8.578;2022-08-19T02:58:43;6.73;;;4.40;;
65769;SDS011;52512;47.650;8.578;2022-08-19T03:01:09;5.43;;;3.97;;
65769;SDS011;52512;47.650;8.578;2022-08-19T03:03:36;6.27;;;4.60;;
65769;SDS011;52512;47.650;8.578;2022-08-19T03:06:07;6.90;;;5.33;;
65769;SDS011;52512;47.650;8.578;2022-08-19T03:08:35;9.00;;;6.30;;
65769;SDS011;52512;47.650;8.578;2022-08-19T03:11:02;8.37;;;5.77;;
65769;SDS011;52512;47.650;8.578;2022-08-19T03:13:28;11.30;;;6.30;;
65769;SDS011;52512;47.650;8.578;2022-08-19T03:15:54;5.73;;;3.80;;
65769;SDS011;52512;47.650;8.578;2022-08-19T03:18:20;12.93;;;7.47;;
65769;SDS011;52512;47.650;8.578;2022-08-19T03:20:50;11.80;;;7.83;;
65769;SDS011;52512;47.650;8.578;2022-08-19T03:23:20;6.03;;;4.80;;
65769;SDS011;52512;47.650;8.578;2022-08-19T03:25:47;5.47;;;4.00;;
65769;SDS011;52512;47.650;8.578;2022-08-19T03:28:15;11.43;;;6.60;;
65769;SDS011;52512;47.650;8.578;2022-08-19T03:30:41;8.33;;;5.47;;
65769;SDS011;52512;47.650;8.578;2022-08-19T03:33:21;15.00;;;8.23;;
65769;SDS011;52512;47.650;8.578;2022-08-19T03:35:47;9.20;;;6.93;;
65769;SDS011;52512;47.650;8.578;2022-08-19T03:38:51;7.73;;;5.77;;
65769;SDS011;52512;47.650;8.578;2022-08-19T03:41:20;9.60;;;7.07;;
65769;SDS011;52512;47.650;8.578;2022-08-19T03:43:48;16.37;;;8.03;;
65769;SDS011;52512;47.650;8.578;2022-08-19T03:46:19;7.80;;;5.53;;
65769;SDS011;52512;47.650;8.578;2022-08-19T03:48:48;7.13;;;5.83;;
65769;SDS011;52512;47.650;8.578;2022-08-19T03:51:21;8.60;;;5.40;;
65769;SDS011;52512;47.650;8.578;2022-08-19T03:53:53;9.23;;;6.07;;
65769;SDS011;52512;47.650;8.578;2022-08-19T03:56:20;14.40;;;8.80;;
65769;SDS011;52512;47.650;8.578;2022-08-19T03:58:46;12.97;;;8.00;;
65769;SDS011;52512;47.650;8.578;2022-08-19T04:01:13;8.40;;;5.93;;
65769;SDS011;52512;47.650;8.578;2022-08-19T04:03:42;10.97;;;8.00;;
65769;SDS011;52512;47.650;8.578;2022-08-19T04:06:09;13.27;;;8.33;;
65769;SDS011;52512;47.650;8.578;2022-08-19T04:08:40;14.20;;;7.13;;
65769;SDS011;52512;47.650;8.578;2022-08-19T04:11:20;9.13;;;6.23;;
65769;SDS011;52512;47.650;8.578;2022-08-19T04:13:48;11.63;;;7.10;;
65769;SDS011;52512;47.650;8.578;2022-08-19T04:16:16;11.00;;;7.67;;
65769;SDS011;52512;47.650;8.578;2022-08-19T04:18:43;12.10;;;7.50;;
65769;SDS011;52512;47.650;8.578;2022-08-19T04:21:14;9.80;;;7.57;;
65769;SDS011;52512;47.650;8.578;2022-08-19T04:23:44;10.97;;;7.00;;
65769;SDS011;52512;47.650;8.578;2022-08-19T04:26:14;15.23;;;7.70;;
65769;SDS011;52512;47.650;8.578;2022-08-19T04:28:46;10.40;;;6.70;;
65769;SDS011;52512;47.650;8.578;2022-08-19T04:31:17;9.40;;;6.23;;
65769;SDS011;52512;47.650;8.578;2022-08-19T04:33:46;11.83;;;7.57;;
65769;SDS011;52512;47.650;8.578;2022-08-19T04:36:18;7.53;;;5.90;;
65769;SDS011;52512;47.650;8.578;2022-08-19T04:38:49;10.70;;;7.40;;
65769;SDS011;52512;47.650;8.578;2022-08-19T04:41:18;15.43;;;7.13;;
65769;SDS011;52512;47.650;8.578;2022-08-19T04:44:02;12.73;;;7.30;;
65769;SDS011;52512;47.650;8.578;2022-08-19T04:46:29;11.97;;;7.47;;
65769;SDS011;52512;47.650;8.578;2022-08-19T04:48:57;15.13;;;6.00;;
65769;SDS011;52512;47.650;8.578;2022-08-19T04:51:23;13.30;;;7.40;;
65769;SDS011;52512;47.650;8.578;2022-08-19T04:53:49;6.53;;;5.30;;
65769;SDS011;52512;47.650;8.578;2022-08-19T04:56:16;7.90;;;5.97;;
65769;SDS011;52512;47.650;8.578;2022-08-19T04:58:43;13.23;;;8.00;;
65769;SDS011;52512;47.650;8.578;2022-08-19T05:01:13;11.40;;;7.80;;
65769;SDS011;52512;47.650;8.578;2022-08-19T05:03:43;17.17;;;8.70;;
65769;SDS011;52512;47.650;8.578;2022-08-19T05:06:10;14.70;;;8.30;;
65769;SDS011;52512;47.650;8.578;2022-08-19T05:08:38;7.80;;;6.23;;
65769;SDS011;52512;47.650;8.578;2022-08-19T05:11:18;10.20;;;7.30;;
65769;SDS011;52512;47.650;8.578;2022-08-19T05:13:47;12.63;;;6.67;;
65769;SDS011;52512;47.650;8.578;2022-08-19T05:16:14;10.27;;;6.47;;
65769;SDS011;52512;47.650;8.578;2022-08-19T05:18:42;10.97;;;7.43;;
65769;SDS011;52512;47.650;8.578;2022-08-19T05:21:27;11.37;;;7.50;;
65769;SDS011;52512;47.650;8.578;2022-08-19T05:24:12;14.43;;;7.90;;
65769;SDS011;52512;47.650;8.578;2022-08-19T05:26:40;11.87;;;7.63;;
65769;SDS011;52512;47.650;8.578;2022-08-19T05:29:08;11.87;;;7.20;;
65769;SDS011;52512;47.650;8.578;2022-08-19T05:31:35;19.80;;;8.70;;
65769;SDS011;52512;47.650;8.578;2022-08-19T05:34:03;12.77;;;7.37;;
65769;SDS011;52512;47.650;8.578;2022-08-19T05:36:33;11.07;;;7.63;;
65769;SDS011;52512;47.650;8.578;2022-08-19T05:39:02;11.60;;;7.20;;
65769;SDS011;52512;47.650;8.578;2022-08-19T05:41:28;14.73;;;9.17;;
65769;SDS011;52512;47.650;8.578;2022-08-19T05:43:58;9.23;;;6.97;;
65769;SDS011;52512;47.650;8.578;2022-08-19T05:46:26;13.00;;;7.40;;
65769;SDS011;52512;47.650;8.578;2022-08-19T05:48:52;14.67;;;7.83;;
65769;SDS011;52512;47.650;8.578;2022-08-19T05:51:21;14.30;;;9.07;;
65769;SDS011;52512;47.650;8.578;2022-08-19T05:53:47;13.50;;;8.10;;
65769;SDS011;52512;47.650;8.578;2022-08-19T05:56:15;13.77;;;8.50;;
65769;SDS011;52512;47.650;8.578;2022-08-19T05:58:41;13.17;;;9.33;;
65769;SDS011;52512;47.650;8.578;2022-08-19T06:01:12;11.63;;;7.27;;
65769;SDS011;52512;47.650;8.578;2022-08-19T06:03:39;17.60;;;7.57;;
65769;SDS011;52512;47.650;8.578;2022-08-19T06:06:06;8.87;;;7.07;;
65769;SDS011;52512;47.650;8.578;2022-08-19T06:08:34;11.37;;;7.97;;
65769;SDS011;52512;47.650;8.578;2022-08-19T06:14:08;14.50;;;8.87;;
65769;SDS011;52512;47.650;8.578;2022-08-19T06:16:39;13.13;;;8.10;;
65769;SDS011;52512;47.650;8.578;2022-08-19T06:19:07;9.90;;;7.43;;
65769;SDS011;52512;47.650;8.578;2022-08-19T06:21:36;10.27;;;7.53;;
65769;SDS011;52512;47.650;8.578;2022-08-19T06:24:06;13.73;;;9.03;;
65769;SDS011;52512;47.650;8.578;2022-08-19T06:26:34;12.00;;;8.43;;
65769;SDS011;52512;47.650;8.578;2022-08-19T06:29:03;15.37;;;9.37;;
65769;SDS011;52512;47.650;8.578;2022-08-19T06:31:32;16.10;;;8.57;;
65769;SDS011;52512;47.650;8.578;2022-08-19T06:34:03;20.57;;;8.27;;
65769;SDS011;52512;47.650;8.578;2022-08-19T06:36:34;11.93;;;8.27;;
65769;SDS011;52512;47.650;8.578;2022-08-19T06:39:10;14.10;;;8.93;;
65769;SDS011;52512;47.650;8.578;2022-08-19T06:41:38;16.50;;;9.63;;
65769;SDS011;52512;47.650;8.578;2022-08-19T06:44:05;14.73;;;8.50;;
65769;SDS011;52512;47.650;8.578;2022-08-19T06:46:32;13.30;;;8.37;;
65769;SDS011;52512;47.650;8.578;2022-08-19T06:48:58;14.90;;;9.97;;
65769;SDS011;52512;47.650;8.578;2022-08-19T06:51:24;16.87;;;9.57;;
65769;SDS011;52512;47.650;8.578;2022-08-19T06:53:52;15.27;;;9.90;;
65769;SDS011;52512;47.650;8.578;2022-08-19T06:56:21;14.40;;;9.43;;
65769;SDS011;52512;47.650;8.578;2022-08-19T06:58:50;13.33;;;8.70;;
65769;SDS011;52512;47.650;8.578;2022-08-19T07:01:17;10.63;;;7.90;;
65769;SDS011;52512;47.650;8.578;2022-08-19T07:03:44;15.20;;;9.00;;
65769;SDS011;52512;47.650;8.578;2022-08-19T07:06:12;17.13;;;9.80;;
65769;SDS011;52512;47.650;8.578;2022-08-19T07:08:42;16.23;;;9.30;;
65769;SDS011;52512;47.650;8.578;2022-08-19T07:11:10;9.93;;;7.40;;
65769;SDS011;52512;47.650;8.578;2022-08-19T07:13:38;17.57;;;9.87;;
65769;SDS011;52512;47.650;8.578;2022-08-19T07:16:05;15.47;;;9.17;;
65769;SDS011;52512;47.650;8.578;2022-08-19T07:18:32;15.77;;;9.40;;
65769;SDS011;52512;47.650;8.578;2022-08-19T07:21:08;15.57;;;9.37;;
65769;SDS011;52512;47.650;8.578;2022-08-19T07:23:37;14.20;;;8.67;;
65769;SDS011;52512;47.650;8.578;2022-08-19T07:26:09;17.13;;;9.70;;
65769;SDS011;52512;47.650;8.578;2022-08-19T07:28:39;18.37;;;10.43;;
65769;SDS011;52512;47.650;8.578;2022-08-19T07:31:06;17.53;;;9.70;;
65769;SDS011;52512;47.650;8.578;2022-08-19T07:33:32;15.77;;;10.40;;
65769;SDS011;52512;47.650;8.578;2022-08-19T07:35:59;16.40;;;9.70;;
65769;SDS011;52512;47.650;8.578;2022-08-19T07:38:24;14.70;;;9.17;;
65769;SDS011;52512;47.650;8.578;2022-08-19T07:40:50;14.47;;;9.00;;
65769;SDS011;52512;47.650;8.578;2022-08-19T07:43:17;16.90;;;9.40;;
65769;SDS011;52512;47.650;8.578;2022-08-19T07:45:48;12.87;;;8.70;;
65769;SDS011;52512;47.650;8.578;2022-08-19T07:48:13;10.63;;;7.40;;
65769;SDS011;52512;47.650;8.578;2022-08-19T07:50:39;16.23;;;7.60;;
65769;SDS011;52512;47.650;8.578;2022-08-19T07:53:05;14.50;;;9.73;;
65769;SDS011;52512;47.650;8.578;2022-08-19T07:55:30;15.47;;;9.40;;
65769;SDS011;52512;47.650;8.578;2022-08-19T07:57:56;12.93;;;9.10;;
65769;SDS011;52512;47.650;8.578;2022-08-19T08:00:22;16.70;;;8.77;;
65769;SDS011;52512;47.650;8.578;2022-08-19T08:02:48;19.10;;;10.50;;
65769;SDS011;52512;47.650;8.578;2022-08-19T08:05:13;18.17;;;10.37;;
65769;SDS011;52512;47.650;8.578;2022-08-19T08:07:57;15.90;;;9.43;;
65769;SDS011;52512;47.650;8.578;2022-08-19T08:10:41;16.30;;;9.97;;
65769;SDS011;52512;47.650;8.578;2022-08-19T08:13:08;13.90;;;8.60;;
65769;SDS011;52512;47.650;8.578;2022-08-19T08:15:34;12.20;;;7.80;;
65769;SDS011;52512;47.650;8.578;2022-08-19T08:18:02;17.70;;;9.80;;
65769;SDS011;52512;47.650;8.578;2022-08-19T08:20:28;14.97;;;9.87;;
65769;SDS011;52512;47.650;8.578;2022-08-19T08:22:53;12.80;;;9.03;;
65769;SDS011;52512;47.650;8.578;2022-08-19T08:25:37;14.10;;;8.47;;
65769;SDS011;52512;47.650;8.578;2022-08-19T08:30:33;14.10;;;8.70;;
65769;SDS011;52512;47.650;8.578;2022-08-19T08:33:01;15.40;;;8.57;;
65769;SDS011;52512;47.650;8.578;2022-08-19T08:35:26;19.03;;;9.53;;
65769;SDS011;52512;47.650;8.578;2022-08-19T08:37:53;13.97;;;9.30;;
65769;SDS011;52512;47.650;8.578;2022-08-19T08:45:35;17.13;;;10.17;;
65769;SDS011;52512;47.650;8.578;2022-08-19T08:48:18;17.80;;;10.50;;
65769;SDS011;52512;47.650;8.578;2022-08-19T08:51:09;14.83;;;9.50;;
65769;SDS011;52512;47.650;8.578;2022-08-19T08:53:37;11.87;;;8.53;;
65769;SDS011;52512;47.650;8.578;2022-08-19T08:56:06;13.70;;;9.33;;
65769;SDS011;52512;47.650;8.578;2022-08-19T08:58:48;12.13;;;8.30;;
65769;SDS011;52512;47.650;8.578;2022-08-19T09:01:23;16.00;;;8.67;;
65769;SDS011;52512;47.650;8.578;2022-08-19T09:03:49;22.30;;;9.60;;
65769;SDS011;52512;47.650;8.578;2022-08-19T09:17:00;17.00;;;9.60;;
65769;SDS011;52512;47.650;8.578;2022-08-19T09:19:28;19.50;;;10.40;;
65769;SDS011;52512;47.650;8.578;2022-08-19T09:21:54;17.50;;;11.33;;
65769;SDS011;52512;47.650;8.578;2022-08-19T09:24:20;21.97;;;11.40;;
65769;SDS011;52512;47.650;8.578;2022-08-19T09:26:46;19.07;;;11.90;;
65769;SDS011;52512;47.650;8.578;2022-08-19T09:29:12;17.57;;;9.10;;
65769;SDS011;52512;47.650;8.578;2022-08-19T09:31:38;20.47;;;11.27;;
65769;SDS011;52512;47.650;8.578;2022-08-19T09:34:03;19.67;;;12.33;;
65769;SDS011;52512;47.650;8.578;2022-08-19T09:36:29;18.97;;;12.17;;
65769;SDS011;52512;47.650;8.578;2022-08-19T09:38:58;21.00;;;11.57;;
65769;SDS011;52512;47.650;8.578;2022-08-19T09:41:26;20.13;;;12.60;;
65769;SDS011;52512;47.650;8.578;2022-08-19T09:43:53;20.27;;;12.90;;
65769;SDS011;52512;47.650;8.578;2022-08-19T09:46:24;27.93;;;12.97;;
65769;SDS011;52512;47.650;8.578;2022-08-19T09:48:52;17.67;;;11.83;;
65769;SDS011;52512;47.650;8.578;2022-08-19T09:51:20;17.13;;;11.53;;
65769;SDS011;52512;47.650;8.578;2022-08-19T09:53:50;21.57;;;13.20;;
65769;SDS011;52512;47.650;8.578;2022-08-19T09:56:18;22.40;;;13.20;;
65769;SDS011;52512;47.650;8.578;2022-08-19T09:58:45;28.70;;;14.30;;
65769;SDS011;52512;47.650;8.578;2022-08-19T10:01:16;20.07;;;11.80;;
65769;SDS011;52512;47.650;8.578;2022-08-19T10:03:51;23.23;;;13.77;;
65769;SDS011;52512;47.650;8.578;2022-08-19T10:06:19;28.63;;;14.63;;
65769;SDS011;52512;47.650;8.578;2022-08-19T10:08:47;20.87;;;12.80;;
65769;SDS011;52512;47.650;8.578;2022-08-19T10:11:13;29.73;;;15.47;;
65769;SDS011;52512;47.650;8.578;2022-08-19T10:13:41;20.90;;;13.40;;
65769;SDS011;52512;47.650;8.578;2022-08-19T10:16:09;25.30;;;14.67;;
65769;SDS011;52512;47.650;8.578;2022-08-19T10:18:41;24.93;;;13.87;;
65769;SDS011;52512;47.650;8.578;2022-08-19T10:21:16;32.07;;;16.40;;
65769;SDS011;52512;47.650;8.578;2022-08-19T10:23:46;30.20;;;14.90;;
65769;SDS011;52512;47.650;8.578;2022-08-19T10:26:14;35.20;;;16.53;;
65769;SDS011;52512;47.650;8.578;2022-08-19T10:28:43;26.37;;;14.80;;
65769;SDS011;52512;47.650;8.578;2022-08-19T10:31:10;32.20;;;14.80;;
65769;SDS011;52512;47.650;8.578;2022-08-19T10:33:42;33.50;;;17.13;;
65769;SDS011;52512;47.650;8.578;2022-08-19T10:36:10;28.40;;;15.00;;
65769;SDS011;52512;47.650;8.578;2022-08-19T10:38:43;32.50;;;16.80;;
65769;SDS011;52512;47.650;8.578;2022-08-19T10:43:41;27.27;;;15.13;;
65769;SDS011;52512;47.650;8.578;2022-08-19T10:46:08;40.37;;;17.40;;
65769;SDS011;52512;47.650;8.578;2022-08-19T10:48:35;35.47;;;18.07;;
65769;SDS011;52512;47.650;8.578;2022-08-19T10:51:01;30.57;;;17.20;;
65769;SDS011;52512;47.650;8.578;2022-08-19T10:53:46;25.53;;;13.97;;
65769;SDS011;52512;47.650;8.578;2022-08-19T10:56:12;29.40;;;16.23;;
65769;SDS011;52512;47.650;8.578;2022-08-19T10:58:56;36.63;;;15.70;;
65769;SDS011;52512;47.650;8.578;2022-08-19T11:01:23;30.27;;;16.77;;
65769;SDS011;52512;47.650;8.578;2022-08-19T11:03:50;38.03;;;18.10;;
65769;SDS011;52512;47.650;8.578;2022-08-19T11:06:16;31.43;;;17.23;;
65769;SDS011;52512;47.650;8.578;2022-08-19T11:08:41;28.33;;;16.20;;
65769;SDS011;52512;47.650;8.578;2022-08-19T11:11:10;37.60;;;19.37;;
65769;SDS011;52512;47.650;8.578;2022-08-19T11:13:37;30.33;;;17.60;;
65769;SDS011;52512;47.650;8.578;2022-08-19T11:16:08;36.17;;;16.10;;
65769;SDS011;52512;47.650;8.578;2022-08-19T11:18:37;32.67;;;17.60;;
65769;SDS011;52512;47.650;8.578;2022-08-19T11:21:23;26.87;;;15.97;;
65769;SDS011;52512;47.650;8.578;2022-08-19T11:23:52;31.50;;;16.93;;
65769;SDS011;52512;47.650;8.578;2022-08-19T11:26:20;29.37;;;15.60;;
65769;SDS011;52512;47.650;8.578;2022-08-19T11:28:46;31.00;;;16.80;;
65769;SDS011;52512;47.650;8.578;2022-08-19T11:31:17;30.27;;;15.67;;
65769;SDS011;52512;47.650;8.578;2022-08-19T11:33:45;31.47;;;16.30;;
65769;SDS011;52512;47.650;8.578;2022-08-19T11:36:11;36.70;;;18.60;;
65769;SDS011;52512;47.650;8.578;2022-08-19T11:38:37;24.60;;;14.07;;
65769;SDS011;52512;47.650;8.578;2022-08-19T11:41:04;33.67;;;17.40;;
65769;SDS011;52512;47.650;8.578;2022-08-19T11:43:32;32.10;;;16.33;;
65769;SDS011;52512;47.650;8.578;2022-08-19T11:45:58;28.60;;;15.57;;
65769;SDS011;52512;47.650;8.578;2022-08-19T11:48:25;27.87;;;15.70;;
65769;SDS011;52512;47.650;8.578;2022-08-19T11:50:52;32.17;;;18.17;;
65769;SDS011;52512;47.650;8.578;2022-08-19T11:53:20;32.23;;;17.97;;
65769;SDS011;52512;47.650;8.578;2022-08-19T11:55:49;30.80;;;16.77;;
65769;SDS011;52512;47.650;8.578;2022-08-19T11:58:21;21.60;;;13.47;;
65769;SDS011;52512;47.650;8.578;2022-08-19T12:00:47;28.60;;;16.97;;
65769;SDS011;52512;47.650;8.578;2022-08-19T12:03:13;28.93;;;16.93;;
65769;SDS011;52512;47.650;8.578;2022-08-19T12:05:40;29.77;;;17.43;;
65769;SDS011;52512;47.650;8.578;2022-08-19T12:08:06;42.57;;;19.33;;
65769;SDS011;52512;47.650;8.578;2022-08-19T12:10:33;33.90;;;17.20;;
65769;SDS011;52512;47.650;8.578;2022-08-19T12:13:00;32.73;;;16.87;;
65769;SDS011;52512;47.650;8.578;2022-08-19T12:15:26;31.00;;;17.00;;
65769;SDS011;52512;47.650;8.578;2022-08-19T12:17:54;28.30;;;16.40;;
65769;SDS011;52512;47.650;8.578;2022-08-19T12:20:22;30.17;;;16.17;;
65769;SDS011;52512;47.650;8.578;2022-08-19T12:22:49;33.47;;;17.90;;
65769;SDS011;52512;47.650;8.578;2022-08-19T12:25:15;29.40;;;16.60;;
65769;SDS011;52512;47.650;8.578;2022-08-19T12:27:41;36.33;;;19.43;;
65769;SDS011;52512;47.650;8.578;2022-08-19T12:30:08;34.07;;;18.70;;
65769;SDS011;52512;47.650;8.578;2022-08-19T12:32:36;33.83;;;19.20;;
65769;SDS011;52512;47.650;8.578;2022-08-19T12:35:03;29.27;;;15.87;;
65769;SDS011;52512;47.650;8.578;2022-08-19T12:37:29;23.20;;;13.90;;
65769;SDS011;52512;47.650;8.578;2022-08-19T12:39:56;32.73;;;17.17;;
65769;SDS011;52512;47.650;8.578;2022-08-19T12:42:22;26.50;;;16.40;;
65769;SDS011;52512;47.650;8.578;2022-08-19T12:44:47;32.60;;;18.57;;
65769;SDS011;52512;47.650;8.578;2022-08-19T12:47:13;27.47;;;16.23;;
65769;SDS011;52512;47.650;8.578;2022-08-19T12:49:39;34.87;;;19.13;;
65769;SDS011;52512;47.650;8.578;2022-08-19T12:52:07;48.63;;;20.23;;
65769;SDS011;52512;47.650;8.578;2022-08-19T12:54:34;29.93;;;18.47;;
65769;SDS011;52512;47.650;8.578;2022-08-19T12:57:00;34.83;;;18.30;;
65769;SDS011;52512;47.650;8.578;2022-08-19T12:59:29;33.60;;;18.17;;
65769;SDS011;52512;47.650;8.578;2022-08-19T13:01:55;34.80;;;18.30;;
65769;SDS011;52512;47.650;8.578;2022-08-19T13:04:21;33.53;;;18.10;;
65769;SDS011;52512;47.650;8.578;2022-08-19T13:06:46;27.60;;;16.23;;
65769;SDS011;52512;47.650;8.578;2022-08-19T13:09:12;39.77;;;19.20;;
65769;SDS011;52512;47.650;8.578;2022-08-19T13:11:38;30.27;;;18.20;;
65769;SDS011;52512;47.650;8.578;2022-08-19T13:14:03;32.50;;;19.13;;
65769;SDS011;52512;47.650;8.578;2022-08-19T13:16:29;39.33;;;19.10;;
65769;SDS011;52512;47.650;8.578;2022-08-19T13:18:56;28.07;;;18.20;;
65769;SDS011;52512;47.650;8.578;2022-08-19T13:21:23;32.10;;;18.80;;
65769;SDS011;52512;47.650;8.578;2022-08-19T13:23:52;34.73;;;19.57;;
65769;SDS011;52512;47.650;8.578;2022-08-19T13:26:19;37.23;;;19.50;;
65769;SDS011;52512;47.650;8.578;2022-08-19T13:28:45;38.23;;;19.87;;
65769;SDS011;52512;47.650;8.578;2022-08-19T13:31:31;33.23;;;16.10;;
65769;SDS011;52512;47.650;8.578;2022-08-19T13:34:18;30.60;;;17.53;;
65769;SDS011;52512;47.650;8.578;2022-08-19T13:36:51;34.77;;;19.20;;
65769;SDS011;52512;47.650;8.578;2022-08-19T13:39:17;34.23;;;19.07;;
65769;SDS011;52512;47.650;8.578;2022-08-19T13:41:44;35.87;;;20.50;;
65769;SDS011;52512;47.650;8.578;2022-08-19T13:44:13;28.63;;;16.50;;
65769;SDS011;52512;47.650;8.578;2022-08-19T13:46:45;33.93;;;19.63;;
65769;SDS011;52512;47.650;8.578;2022-08-19T13:49:14;40.10;;;20.97;;
65769;SDS011;52512;47.650;8.578;2022-08-19T13:51:40;36.13;;;19.83;;
65769;SDS011;52512;47.650;8.578;2022-08-19T13:54:07;34.70;;;18.33;;
65769;SDS011;52512;47.650;8.578;2022-08-19T13:56:33;45.03;;;21.03;;
65769;SDS011;52512;47.650;8.578;2022-08-19T13:59:00;29.07;;;17.57;;
65769;SDS011;52512;47.650;8.578;2022-08-19T14:01:26;32.97;;;18.17;;
65769;SDS011;52512;47.650;8.578;2022-08-19T14:03:52;38.87;;;21.47;;
65769;SDS011;52512;47.650;8.578;2022-08-19T14:06:18;35.47;;;19.87;;
65769;SDS011;52512;47.650;8.578;2022-08-19T14:08:44;31.03;;;18.83;;
65769;SDS011;52512;47.650;8.578;2022-08-19T14:11:10;34.70;;;20.43;;
65769;SDS011;52512;47.650;8.578;2022-08-19T14:13:36;31.47;;;18.90;;
65769;SDS011;52512;47.650;8.578;2022-08-19T14:16:06;35.27;;;20.63;;
65769;SDS011;52512;47.650;8.578;2022-08-19T14:18:34;48.17;;;20.73;;
65769;SDS011;52512;47.650;8.578;2022-08-19T14:20:59;36.13;;;20.93;;
65769;SDS011;52512;47.650;8.578;2022-08-19T14:23:25;41.27;;;20.27;;
65769;SDS011;52512;47.650;8.578;2022-08-19T14:25:51;37.43;;;19.60;;
65769;SDS011;52512;47.650;8.578;2022-08-19T14:28:16;43.83;;;22.10;;
65769;SDS011;52512;47.650;8.578;2022-08-19T14:30:42;29.20;;;18.63;;
65769;SDS011;52512;47.650;8.578;2022-08-19T14:33:09;34.43;;;19.70;;
65769;SDS011;52512;47.650;8.578;2022-08-19T14:35:35;42.30;;;21.30;;
65769;SDS011;52512;47.650;8.578;2022-08-19T14:38:03;39.47;;;21.17;;
65769;SDS011;52512;47.650;8.578;2022-08-19T14:40:31;41.77;;;23.37;;
65769;SDS011;52512;47.650;8.578;2022-08-19T14:42:58;45.17;;;22.30;;
65769;SDS011;52512;47.650;8.578;2022-08-19T14:45:29;39.37;;;21.13;;
65769;SDS011;52512;47.650;8.578;2022-08-19T14:47:56;39.80;;;20.37;;
65769;SDS011;52512;47.650;8.578;2022-08-19T14:50:24;31.70;;;17.80;;
65769;SDS011;52512;47.650;8.578;2022-08-19T14:52:49;34.77;;;21.10;;
65769;SDS011;52512;47.650;8.578;2022-08-19T14:55:22;37.83;;;19.73;;
65769;SDS011;52512;47.650;8.578;2022-08-19T14:57:48;30.87;;;17.43;;
65769;SDS011;52512;47.650;8.578;2022-08-19T15:00:15;36.73;;;17.77;;
65769;SDS011;52512;47.650;8.578;2022-08-19T15:02:41;29.17;;;16.73;;
65769;SDS011;52512;47.650;8.578;2022-08-19T15:05:09;33.47;;;19.73;;